createdAt,value
2018-08-17T00:01:12.815Z,13.10
2018-08-17T00:03:47.334Z,12.75
2018-08-17T00:06:18.959Z,8.60
2018-08-17T00:08:49.111Z,11.75
2018-08-17T00:11:23.551Z,10.88
2018-08-17T00:13:56.498Z,13.18
2018-08-17T00:16:31.159Z,11.73
2018-08-17T00:19:05.156Z,12.75
2018-08-17T00:21:38.142Z,18.48
2018-08-17T00:24:11.287Z,19.95
2018-08-17T00:26:42.860Z,20.98
2018-08-17T00:29:14.396Z,28.25
2018-08-17T00:31:46.075Z,16.52
2018-08-17T00:34:17.601Z,19.02
2018-08-17T00:36:49.209Z,16.42
2018-08-17T00:39:23.880Z,19.20
2018-08-17T00:41:54.976Z,21.45
2018-08-17T00:44:26.504Z,17.45
2018-08-17T00:47:00.962Z,18.77
2018-08-17T00:49:32.666Z,19.12
2018-08-17T00:52:05.770Z,17.17
2018-08-17T00:54:38.857Z,19.00
2018-08-17T00:57:12.455Z,15.80
2018-08-17T00:59:43.931Z,14.52
2018-08-17T01:02:17.072Z,15.38
2018-08-17T01:04:47.018Z,19.33
2018-08-17T01:07:20.127Z,12.68
2018-08-17T01:09:53.149Z,13.57
2018-08-17T01:12:26.591Z,11.73
2018-08-17T01:14:58.205Z,11.75
2018-08-17T01:17:31.403Z,14.15
2018-08-17T01:20:02.955Z,12.90
2018-08-17T01:22:36.082Z,17.75
2018-08-17T01:25:10.605Z,16.92
2018-08-17T01:27:43.777Z,12.70
2018-08-17T01:30:17.067Z,16.95
2018-08-17T01:32:51.536Z,15.57
2018-08-17T01:35:24.586Z,14.48
2018-08-17T01:37:57.823Z,14.70
2018-08-17T01:40:29.331Z,17.67
2018-08-17T01:43:02.216Z,12.65
2018-08-17T01:45:36.852Z,14.30
2018-08-17T01:48:09.220Z,15.48
2018-08-17T01:50:42.191Z,15.75
2018-08-17T01:53:12.856Z,14.48
2018-08-17T01:55:44.260Z,15.20
2018-08-17T01:58:18.708Z,16.50
2018-08-17T02:00:52.028Z,12.60
2018-08-17T02:03:23.578Z,14.00
2018-08-17T02:05:55.085Z,15.95
2018-08-17T02:08:28.494Z,19.85
2018-08-17T02:11:01.771Z,15.20
2018-08-17T02:13:35.056Z,22.17
2018-08-17T02:16:06.833Z,21.02
2018-08-17T02:18:38.421Z,19.52
2018-08-17T02:21:10.551Z,18.20
2018-08-17T02:23:42.031Z,19.48
2018-08-17T02:26:13.613Z,32.13
2018-08-17T02:28:46.805Z,30.75
2018-08-17T02:31:18.502Z,28.45
2018-08-17T02:33:53.402Z,22.25
2018-08-17T02:36:28.550Z,25.67
2018-08-17T02:39:00.068Z,24.30
2018-08-17T02:41:33.744Z,23.35
2018-08-17T02:44:05.396Z,24.83
2018-08-17T02:46:37.885Z,26.10
2018-08-17T02:49:10.874Z,28.58
2018-08-17T02:51:44.213Z,27.95
2018-08-17T02:54:15.752Z,29.58
2018-08-17T02:56:47.237Z,24.63
2018-08-17T02:59:21.894Z,25.37
2018-08-17T03:01:54.746Z,31.40
2018-08-17T03:04:28.049Z,30.75
2018-08-17T03:07:02.049Z,32.10
2018-08-17T03:09:34.917Z,31.25
2018-08-17T03:12:07.853Z,37.13
2018-08-17T03:14:39.500Z,33.80
2018-08-17T03:17:11.007Z,35.70
2018-08-17T03:19:42.612Z,40.67
2018-08-17T03:22:15.741Z,34.72
2018-08-17T03:24:46.446Z,34.53
2018-08-17T03:27:16.729Z,38.03
2018-08-17T03:29:48.161Z,31.42
2018-08-17T03:32:21.199Z,34.58
2018-08-17T03:34:55.657Z,35.03
2018-08-17T03:37:27.223Z,44.40
2018-08-17T03:40:00.318Z,42.78
2018-08-17T03:42:32.217Z,37.22
2018-08-17T03:45:05.218Z,33.72
2018-08-17T03:47:38.290Z,30.37
2018-08-17T03:50:11.022Z,37.30
2018-08-17T03:52:43.466Z,31.83
2018-08-17T03:55:16.577Z,33.60
2018-08-17T03:57:49.671Z,35.80
2018-08-17T04:00:20.389Z,28.83
2018-08-17T04:02:53.521Z,33.30
2018-08-17T04:05:26.608Z,34.65
2018-08-17T04:08:01.355Z,36.47
2018-08-17T04:10:34.504Z,29.55
2018-08-17T04:13:07.578Z,37.65
2018-08-17T04:15:39.107Z,29.63
2018-08-17T04:18:12.348Z,36.50
2018-08-17T04:20:45.533Z,32.13
2018-08-17T04:23:18.541Z,35.65
2018-08-17T04:25:51.649Z,37.80
2018-08-17T04:28:24.529Z,38.80
2018-08-17T04:30:56.111Z,43.67
2018-08-17T04:33:30.598Z,43.17
2018-08-17T04:36:02.160Z,42.55
2018-08-17T04:38:33.701Z,48.63
2018-08-17T04:41:08.373Z,44.05
2018-08-17T04:43:43.039Z,50.45
2018-08-17T04:46:14.486Z,36.95
2018-08-17T04:48:47.598Z,42.05
2018-08-17T04:51:20.793Z,38.20
2018-08-17T04:53:55.507Z,38.75
2018-08-17T04:56:27.529Z,41.80
2018-08-17T04:59:00.708Z,35.95
2018-08-17T05:01:32.266Z,39.42
2018-08-17T05:04:05.479Z,42.85
2018-08-17T05:06:39.949Z,35.53
2018-08-17T05:09:11.883Z,38.33
2018-08-17T05:11:43.495Z,38.72
2018-08-17T05:14:16.417Z,38.33
2018-08-17T05:16:47.964Z,38.90
2018-08-17T05:19:20.091Z,28.52
2018-08-17T05:21:51.790Z,26.50
2018-08-17T05:24:24.939Z,21.48
2018-08-17T05:26:57.919Z,23.65
2018-08-17T05:29:31.467Z,21.58
2018-08-17T05:32:03.113Z,19.05
2018-08-17T05:34:36.223Z,20.42
2018-08-17T05:37:09.653Z,22.23
2018-08-17T05:39:41.267Z,18.98
2018-08-17T05:42:15.815Z,17.48
2018-08-17T05:44:50.177Z,21.98
2018-08-17T05:47:23.326Z,23.60
2018-08-17T05:49:56.366Z,21.83
2018-08-17T05:52:27.932Z,20.27
2018-08-17T05:55:02.440Z,22.65
2018-08-17T05:57:32.654Z,20.65
2018-08-17T06:00:05.990Z,20.08
2018-08-17T06:02:40.621Z,18.60
2018-08-17T06:05:12.577Z,15.43
2018-08-17T06:07:45.883Z,17.77
2018-08-17T06:10:20.360Z,20.90
2018-08-17T06:12:52.638Z,19.98
2018-08-17T06:15:24.118Z,21.17
2018-08-17T06:17:55.576Z,25.73
2018-08-17T06:20:28.866Z,19.15
2018-08-17T06:23:02.019Z,19.12
2018-08-17T06:25:35.173Z,19.20
2018-08-17T06:28:08.181Z,17.00
2018-08-17T06:30:38.837Z,19.58
2018-08-17T06:33:10.356Z,18.12
2018-08-17T06:35:43.334Z,15.68
2018-08-17T06:38:18.118Z,17.58
2018-08-17T06:40:50.826Z,22.60
2018-08-17T06:43:25.514Z,20.35
2018-08-17T06:45:58.624Z,16.85
2018-08-17T06:48:30.139Z,18.98
2018-08-17T06:51:01.711Z,15.48
2018-08-17T06:53:34.804Z,20.05
2018-08-17T06:56:06.587Z,19.23
2018-08-17T06:58:40.153Z,16.92
2018-08-17T07:01:13.140Z,17.95
2018-08-17T07:03:46.100Z,18.27
2018-08-17T07:06:19.154Z,13.43
2018-08-17T07:08:49.518Z,14.43
2018-08-17T07:11:21.404Z,17.12
2018-08-17T07:13:53.277Z,17.17
2018-08-17T07:16:24.921Z,13.70
2018-08-17T07:18:56.428Z,15.07
2018-08-17T07:21:29.703Z,17.37
2018-08-17T07:24:03.127Z,16.90
2018-08-17T07:26:36.212Z,16.15
2018-08-17T07:29:07.748Z,14.73
2018-08-17T07:31:39.392Z,17.17
2018-08-17T07:34:12.290Z,13.02
2018-08-17T07:36:45.324Z,12.70
2018-08-17T07:39:16.744Z,12.50
2018-08-17T07:41:49.785Z,15.98
2018-08-17T07:44:22.668Z,11.00
2018-08-17T07:46:54.119Z,11.23
2018-08-17T07:49:27.230Z,11.55
2018-08-17T07:52:00.136Z,11.18
2018-08-17T07:54:30.145Z,10.40
2018-08-17T07:57:02.994Z,9.57
2018-08-17T07:59:35.973Z,10.57
2018-08-17T08:02:10.532Z,8.63
2018-08-17T08:04:43.479Z,12.27
2018-08-17T08:07:14.934Z,9.02
2018-08-17T08:09:47.845Z,12.60
2018-08-17T08:12:20.756Z,13.07
2018-08-17T08:14:52.200Z,13.45
2018-08-17T08:17:25.268Z,9.55
2018-08-17T08:20:35.540Z,10.95
2018-08-17T08:23:33.723Z,12.45
2018-08-17T08:26:05.351Z,11.05
2018-08-17T08:28:39.815Z,11.45
2018-08-17T08:31:12.683Z,8.88
2018-08-17T08:33:44.276Z,7.10
2018-08-17T08:36:15.707Z,11.48
2018-08-17T08:38:49.962Z,9.15
2018-08-17T08:41:20.849Z,10.32
2018-08-17T08:43:52.599Z,9.50
2018-08-17T08:46:23.982Z,10.30
2018-08-17T08:48:58.479Z,7.60
2018-08-17T08:51:28.245Z,5.93
2018-08-17T08:54:00.676Z,11.18
2018-08-17T08:56:31.696Z,10.82
2018-08-17T08:59:02.219Z,8.68
2018-08-17T09:01:36.616Z,8.68
2018-08-17T09:04:11.227Z,12.40
2018-08-17T09:06:44.308Z,10.30
2018-08-17T09:09:15.719Z,8.50
2018-08-17T09:11:49.077Z,11.23
2018-08-17T09:14:23.533Z,8.45
2018-08-17T09:16:56.049Z,11.95
2018-08-17T09:19:27.543Z,8.88
2018-08-17T09:22:02.084Z,7.30
2018-08-17T09:24:33.915Z,12.02
2018-08-17T09:27:07.241Z,11.30
2018-08-17T09:29:39.264Z,9.60
2018-08-17T09:32:12.138Z,10.88
2018-08-17T09:34:45.030Z,9.63
2018-08-17T09:37:14.953Z,10.10
2018-08-17T09:39:50.275Z,6.95
2018-08-17T09:42:20.756Z,11.35
2018-08-17T09:44:52.280Z,7.30
2018-08-17T09:47:26.682Z,9.60
2018-08-17T09:50:01.014Z,9.32
2018-08-17T09:52:34.867Z,6.82
2018-08-17T09:55:04.756Z,8.80
2018-08-17T09:57:38.670Z,5.80
2018-08-17T10:00:14.366Z,6.90
2018-08-17T10:03:03.447Z,7.97
2018-08-17T10:05:45.810Z,6.65
2018-08-17T10:08:34.537Z,6.65
2018-08-17T10:11:06.271Z,7.20
2018-08-17T10:13:40.583Z,8.75
2018-08-17T10:16:12.601Z,7.78
2018-08-17T10:18:48.286Z,8.63
2018-08-17T10:21:20.428Z,5.97
2018-08-17T10:23:54.489Z,9.95
2018-08-17T10:26:27.319Z,6.97
2018-08-17T10:28:59.829Z,7.03
2018-08-17T10:31:32.765Z,5.25
2018-08-17T10:34:05.858Z,6.28
2018-08-17T10:36:39.680Z,5.65
2018-08-17T10:39:11.690Z,4.78
2018-08-17T10:41:42.543Z,5.32
2018-08-17T10:44:15.981Z,5.03
2018-08-17T10:46:47.678Z,6.82
2018-08-17T10:49:22.178Z,7.97
2018-08-17T10:51:54.572Z,6.50
2018-08-17T10:54:26.449Z,4.47
2018-08-17T10:57:00.846Z,9.23
2018-08-17T10:59:33.842Z,8.05
2018-08-17T11:02:05.230Z,8.82
2018-08-17T11:04:36.795Z,5.72
2018-08-17T11:07:08.353Z,7.45
2018-08-17T11:09:39.970Z,6.50
2018-08-17T11:12:10.485Z,6.68
2018-08-17T11:14:41.839Z,8.48
2018-08-17T11:17:15.434Z,9.35
2018-08-17T11:19:47.443Z,8.27
2018-08-17T11:22:19.815Z,9.38
2018-08-17T11:24:54.500Z,7.20
2018-08-17T11:27:26.489Z,10.98
2018-08-17T11:30:01.077Z,9.88
2018-08-17T11:32:33.000Z,7.45
2018-08-17T11:35:04.352Z,7.43
2018-08-17T11:37:38.717Z,11.38
2018-08-17T11:40:14.699Z,7.90
2018-08-17T11:42:50.270Z,6.72
2018-08-17T11:45:25.075Z,8.05
2018-08-17T11:47:57.821Z,8.05
2018-08-17T11:50:32.095Z,7.65
2018-08-17T11:53:03.610Z,9.00
2018-08-17T11:55:37.287Z,8.43
2018-08-17T11:58:10.101Z,7.62
2018-08-17T12:00:43.073Z,9.40
2018-08-17T12:03:16.961Z,7.75
2018-08-17T12:05:49.115Z,7.12
2018-08-17T12:08:20.643Z,11.15
2018-08-17T12:11:01.173Z,9.07
2018-08-17T12:13:32.610Z,9.43
2018-08-17T12:16:03.020Z,6.85
2018-08-17T12:18:35.900Z,5.37
2018-08-17T12:21:08.855Z,8.32
2018-08-17T12:23:40.284Z,7.43
2018-08-17T12:26:11.805Z,5.03
2018-08-17T12:28:44.589Z,6.53
2018-08-17T12:31:17.937Z,7.37
2018-08-17T12:33:52.290Z,7.30
2018-08-17T12:36:24.473Z,6.57
2018-08-17T12:38:57.324Z,6.00
2018-08-17T12:41:30.336Z,7.20
2018-08-17T12:44:04.021Z,7.72
2018-08-17T12:46:36.981Z,7.20
2018-08-17T12:49:08.357Z,6.05
2018-08-17T12:51:41.286Z,8.63
2018-08-17T12:54:19.973Z,5.78
2018-08-17T12:56:51.636Z,7.20
2018-08-17T12:59:26.124Z,10.13
2018-08-17T13:01:59.322Z,6.62
2018-08-17T13:04:31.715Z,8.80
2018-08-17T13:07:01.628Z,9.80
2018-08-17T13:09:31.915Z,7.87
2018-08-17T13:12:04.630Z,9.82
2018-08-17T13:14:38.905Z,11.85
2018-08-17T13:17:11.783Z,10.48
2018-08-17T13:19:44.923Z,9.13
2018-08-17T13:22:16.394Z,7.70
2018-08-17T13:24:49.241Z,9.48
2018-08-17T13:27:19.786Z,11.18
2018-08-17T13:29:52.784Z,12.25
2018-08-17T13:32:26.256Z,10.30
2018-08-17T13:34:59.361Z,7.87
2018-08-17T13:37:32.331Z,9.68
2018-08-17T13:40:03.871Z,8.82
2018-08-17T13:42:35.146Z,14.65
2018-08-17T13:45:07.345Z,5.95
2018-08-17T13:47:42.589Z,8.15
2018-08-17T13:50:15.495Z,7.03
2018-08-17T13:52:46.920Z,6.97
2018-08-17T13:55:18.592Z,9.73
2018-08-17T13:57:50.031Z,7.78
2018-08-17T14:00:21.281Z,8.55
2018-08-17T14:02:52.599Z,7.35
2018-08-17T14:05:24.061Z,7.03
2018-08-17T14:07:56.075Z,5.55
2018-08-17T14:10:29.179Z,8.40
2018-08-17T14:13:00.644Z,12.73
2018-08-17T14:15:31.852Z,6.85
2018-08-17T14:18:04.649Z,9.95
2018-08-17T14:20:34.515Z,5.72
2018-08-17T14:23:06.395Z,9.88
2018-08-17T14:25:37.803Z,7.78
2018-08-17T14:28:09.225Z,8.63
2018-08-17T14:30:39.257Z,5.97
2018-08-17T14:33:12.062Z,5.85
2018-08-17T14:35:43.484Z,6.10
2018-08-17T14:38:15.588Z,7.25
2018-08-17T14:40:46.927Z,6.32
2018-08-17T14:43:18.334Z,7.57
2018-08-17T14:45:49.817Z,4.30
2018-08-17T14:48:21.242Z,6.35
2018-08-17T14:50:52.586Z,5.10
2018-08-17T14:53:24.027Z,8.70
2018-08-17T14:55:56.950Z,7.10
2018-08-17T14:58:28.869Z,3.87
2018-08-17T15:01:01.723Z,5.62
2018-08-17T15:03:35.044Z,4.87
2018-08-17T15:06:06.849Z,5.18
2018-08-17T15:08:39.799Z,5.03
2018-08-17T15:11:11.682Z,5.00
2018-08-17T15:13:43.672Z,6.22
2018-08-17T15:16:15.070Z,5.37
2018-08-17T15:18:46.672Z,5.78
2018-08-17T15:21:16.567Z,5.35
2018-08-17T15:23:47.963Z,5.93
2018-08-17T15:26:20.041Z,5.37
2018-08-17T15:28:51.481Z,4.60
2018-08-17T15:31:21.445Z,3.15
2018-08-17T15:33:53.116Z,5.70
2018-08-17T15:36:24.704Z,5.45
2018-08-17T15:38:58.982Z,4.78
2018-08-17T15:41:32.511Z,6.78
2018-08-17T15:44:04.135Z,4.18
2018-08-17T15:46:36.908Z,5.85
2018-08-17T15:49:08.440Z,7.37
2018-08-17T15:51:40.569Z,5.30
2018-08-17T15:54:13.502Z,6.93
2018-08-17T15:56:45.419Z,4.75
2018-08-17T15:59:16.945Z,6.55
2018-08-17T16:01:49.785Z,5.22
2018-08-17T16:04:22.716Z,3.03
2018-08-17T16:06:54.074Z,5.28
2018-08-17T16:09:28.386Z,3.67
2018-08-17T16:11:58.297Z,4.55
2018-08-17T16:14:31.115Z,5.15
2018-08-17T16:17:01.566Z,2.92
2018-08-17T16:19:31.464Z,3.58
2018-08-17T16:22:04.309Z,6.12
2018-08-17T16:24:37.330Z,4.07
2018-08-17T16:27:07.315Z,2.22
2018-08-17T16:29:39.509Z,5.05
2018-08-17T16:32:13.709Z,3.80
2018-08-17T16:34:45.070Z,3.97
2018-08-17T16:37:16.455Z,3.80
2018-08-17T16:39:58.873Z,3.42
2018-08-17T16:42:37.595Z,2.95
2018-08-17T16:45:11.851Z,3.10
2018-08-17T16:47:42.448Z,3.90
2018-08-17T16:50:15.520Z,3.47
2018-08-17T16:52:49.975Z,4.20
2018-08-17T16:55:22.014Z,3.33
2018-08-17T16:57:53.442Z,3.00
2018-08-17T17:00:24.955Z,4.47
2018-08-17T17:02:59.292Z,3.05
2018-08-17T17:05:29.283Z,2.50
2018-08-17T17:07:59.184Z,2.55
2018-08-17T17:10:34.554Z,5.12
2018-08-17T17:13:06.626Z,1.77
2018-08-17T17:15:40.949Z,6.25
2018-08-17T17:18:12.441Z,5.37
2018-08-17T17:20:43.955Z,4.62
2018-08-17T17:23:17.357Z,1.73
2018-08-17T17:25:50.242Z,5.60
2018-08-17T17:28:24.803Z,4.03
2018-08-17T17:30:56.815Z,3.60
2018-08-17T17:33:26.676Z,3.28
2018-08-17T17:35:58.231Z,3.75
2018-08-17T17:38:31.112Z,3.20
2018-08-17T17:41:04.090Z,2.50
2018-08-17T17:43:33.912Z,3.67
2018-08-17T17:46:06.869Z,4.47
2018-08-17T17:48:38.956Z,2.37
2018-08-17T17:51:10.346Z,3.22
2018-08-17T17:53:43.146Z,3.70
2018-08-17T17:56:14.652Z,5.10
2018-08-17T17:58:44.566Z,3.10
2018-08-17T18:01:19.111Z,2.45
2018-08-17T18:03:50.478Z,4.03
2018-08-17T18:06:21.123Z,2.30
2018-08-17T18:08:52.615Z,4.93
2018-08-17T18:11:25.534Z,5.32
2018-08-17T18:14:00.223Z,4.87
2018-08-17T18:16:33.115Z,1.42
2018-08-17T18:19:05.044Z,5.22
2018-08-17T18:21:35.588Z,3.33
2018-08-17T18:24:14.665Z,2.10
2018-08-17T18:26:54.231Z,3.33
2018-08-17T18:29:26.888Z,5.07
2018-08-17T18:31:59.913Z,3.75
2018-08-17T18:34:31.452Z,4.50
2018-08-17T18:37:01.337Z,5.07
2018-08-17T18:39:32.793Z,3.37
2018-08-17T18:42:04.440Z,3.40
2018-08-17T18:44:37.512Z,2.60
2018-08-17T18:47:08.923Z,2.45
2018-08-17T18:49:41.939Z,3.17
2018-08-17T18:52:14.812Z,3.33
2018-08-17T18:54:47.684Z,5.85
2018-08-17T18:57:19.173Z,4.15
2018-08-17T18:59:49.175Z,5.05
2018-08-17T19:02:19.100Z,4.32
2018-08-17T19:04:52.372Z,3.70
2018-08-17T19:07:25.244Z,3.80
2018-08-17T19:09:58.414Z,2.75
2018-08-17T19:12:31.535Z,2.28
2018-08-17T19:15:03.069Z,3.28
2018-08-17T19:17:37.018Z,2.37
2018-08-17T19:20:11.453Z,4.30
2018-08-17T19:22:48.789Z,6.57
2018-08-17T19:25:21.251Z,5.18
2018-08-17T19:27:54.363Z,6.80
2018-08-17T19:30:36.056Z,3.78
2018-08-17T19:33:16.376Z,4.45
2018-08-17T19:35:51.586Z,8.40
2018-08-17T19:38:25.991Z,3.60
2018-08-17T19:40:58.816Z,3.35
2018-08-17T19:43:28.803Z,3.80
2018-08-17T19:45:58.773Z,3.00
2018-08-17T19:48:32.144Z,6.18
2018-08-17T19:51:06.687Z,4.40
2018-08-17T19:53:41.884Z,3.85
2018-08-17T19:56:14.989Z,8.68
2018-08-17T19:58:47.973Z,4.45
2018-08-17T20:01:20.040Z,4.75
2018-08-17T20:03:50.063Z,5.90
2018-08-17T20:06:22.209Z,6.50
2018-08-17T20:08:56.537Z,3.03
2018-08-17T20:11:27.975Z,5.40
2018-08-17T20:14:01.202Z,6.07
2018-08-17T20:16:32.250Z,3.25
2018-08-17T20:19:04.306Z,7.72
2018-08-17T20:21:38.966Z,5.53
2018-08-17T20:24:12.127Z,2.78
2018-08-17T20:26:45.554Z,3.20
2018-08-17T20:29:15.426Z,4.22
2018-08-17T20:31:46.999Z,9.43
2018-08-17T20:34:18.626Z,5.75
2018-08-17T20:36:53.027Z,6.62
2018-08-17T20:39:26.084Z,5.37
2018-08-17T20:41:59.172Z,4.57
2018-08-17T20:44:31.633Z,5.28
2018-08-17T20:47:04.609Z,5.28
2018-08-17T20:49:36.308Z,5.47
2018-08-17T20:52:08.412Z,4.75
2018-08-17T20:54:41.502Z,4.68
2018-08-17T20:57:13.428Z,7.28
2018-08-17T20:59:45.333Z,5.10
2018-08-17T21:02:16.813Z,11.10
2018-08-17T21:04:49.916Z,4.12
2018-08-17T21:07:23.216Z,7.87
2018-08-17T21:09:54.782Z,3.83
2018-08-17T21:12:28.011Z,10.38
2018-08-17T21:15:02.800Z,6.62
2018-08-17T21:17:37.366Z,7.12
2018-08-17T21:20:12.226Z,6.47
2018-08-17T21:22:47.540Z,5.37
2018-08-17T21:25:22.129Z,7.22
2018-08-17T21:27:56.200Z,6.68
2018-08-17T21:30:30.818Z,6.50
2018-08-17T21:33:02.318Z,7.65
2018-08-17T21:35:35.375Z,8.07
2018-08-17T21:38:07.075Z,8.02
2018-08-17T21:40:37.210Z,8.25
2018-08-17T21:43:11.759Z,7.82
2018-08-17T21:45:45.262Z,6.85
2018-08-17T21:48:30.895Z,8.38
2018-08-17T21:51:04.242Z,6.78
2018-08-17T21:53:37.226Z,9.80
2018-08-17T21:56:08.816Z,13.20
2018-08-17T21:58:43.675Z,6.25
2018-08-17T22:01:13.752Z,7.55
2018-08-17T22:03:43.725Z,8.77
2018-08-17T22:06:17.296Z,11.32
2018-08-17T22:08:50.305Z,8.57
2018-08-17T22:11:43.184Z,8.27
2018-08-17T22:14:16.649Z,10.32
2018-08-17T22:16:48.029Z,9.80
2018-08-17T22:19:58.865Z,8.70
2018-08-17T22:22:31.001Z,11.25
2018-08-17T22:25:02.466Z,9.75
2018-08-17T22:27:35.764Z,10.30
2018-08-17T22:30:08.726Z,13.10
2018-08-17T22:32:38.652Z,8.40
2018-08-17T22:35:11.979Z,10.15
2018-08-17T22:37:46.518Z,9.27
2018-08-17T22:40:19.603Z,9.57
2018-08-17T22:42:53.605Z,12.95
2018-08-17T22:45:25.119Z,7.45
2018-08-17T22:47:58.680Z,11.95
2018-08-17T22:50:31.008Z,12.40
2018-08-17T22:53:04.090Z,11.03
2018-08-17T22:55:37.070Z,7.25
2018-08-17T22:58:07.792Z,8.95
2018-08-17T23:00:39.464Z,13.65
2018-08-17T23:03:12.468Z,11.63
2018-08-17T23:05:45.040Z,9.55
2018-08-17T23:08:15.050Z,11.20
2018-08-17T23:10:46.693Z,11.38
2018-08-17T23:13:20.172Z,8.70
2018-08-17T23:15:51.532Z,8.45
2018-08-17T23:18:24.576Z,12.93
2018-08-17T23:20:57.694Z,7.70
2018-08-17T23:23:27.748Z,9.98
2018-08-17T23:26:00.836Z,6.90
2018-08-17T23:28:33.692Z,8.63
2018-08-17T23:31:06.137Z,6.25
2018-08-17T23:33:37.652Z,8.05
2018-08-17T23:36:07.823Z,7.37
2018-08-17T23:38:42.397Z,6.72
2018-08-17T23:41:14.640Z,8.02
2018-08-17T23:43:44.662Z,9.30
2018-08-17T23:46:16.183Z,8.05
2018-08-17T23:48:46.994Z,8.13
2018-08-17T23:51:18.827Z,6.15
2018-08-17T23:53:50.384Z,7.68
2018-08-17T23:56:23.090Z,8.05
2018-08-17T23:58:54.604Z,5.93
